sensor_id;sensor_type;location;lat;lon;timestamp;P1;durP1;ratioP1;P2;durP2;ratioP2
13366;SDS011;6752;52.612;13.630;2024-03-06T00:03:56;14.37;;;11.97;;
13366;SDS011;6752;52.612;13.630;2024-03-06T00:08:58;13.67;;;12.20;;
13366;SDS011;6752;52.612;13.630;2024-03-06T00:14:01;14.67;;;11.87;;
13366;SDS011;6752;52.612;13.630;2024-03-06T00:19:03;14.33;;;11.63;;
13366;SDS011;6752;52.612;13.630;2024-03-06T00:24:05;14.00;;;11.63;;
13366;SDS011;6752;52.612;13.630;2024-03-06T00:29:08;14.43;;;11.20;;
13366;SDS011;6752;52.612;13.630;2024-03-06T00:34:10;14.17;;;11.87;;
13366;SDS011;6752;52.612;13.630;2024-03-06T00:39:12;13.97;;;11.40;;
13366;SDS011;6752;52.612;13.630;2024-03-06T00:44:18;12.97;;;11.00;;
13366;SDS011;6752;52.612;13.630;2024-03-06T00:49:20;12.97;;;11.23;;
13366;SDS011;6752;52.612;13.630;2024-03-06T00:54:22;14.90;;;12.10;;
13366;SDS011;6752;52.612;13.630;2024-03-06T00:59:25;13.10;;;11.43;;
13366;SDS011;6752;52.612;13.630;2024-03-06T01:04:27;16.00;;;12.43;;
13366;SDS011;6752;52.612;13.630;2024-03-06T01:09:29;15.33;;;13.07;;
13366;SDS011;6752;52.612;13.630;2024-03-06T01:14:32;13.40;;;11.07;;
13366;SDS011;6752;52.612;13.630;2024-03-06T01:19:34;13.97;;;10.60;;
13366;SDS011;6752;52.612;13.630;2024-03-06T01:24:36;16.63;;;13.40;;
13366;SDS011;6752;52.612;13.630;2024-03-06T01:29:39;12.98;;;11.68;;
13366;SDS011;6752;52.612;13.630;2024-03-06T01:34:41;11.30;;;10.17;;
13366;SDS011;6752;52.612;13.630;2024-03-06T01:39:44;10.77;;;9.17;;
13366;SDS011;6752;52.612;13.630;2024-03-06T01:44:46;11.77;;;10.13;;
13366;SDS011;6752;52.612;13.630;2024-03-06T01:49:48;11.03;;;9.30;;
13366;SDS011;6752;52.612;13.630;2024-03-06T01:54:51;11.83;;;9.87;;
13366;SDS011;6752;52.612;13.630;2024-03-06T01:59:53;11.57;;;9.60;;
13366;SDS011;6752;52.612;13.630;2024-03-06T02:04:55;12.03;;;8.90;;
13366;SDS011;6752;52.612;13.630;2024-03-06T02:09:58;11.67;;;9.50;;
13366;SDS011;6752;52.612;13.630;2024-03-06T02:15:00;11.63;;;9.03;;
13366;SDS011;6752;52.612;13.630;2024-03-06T02:20:02;11.80;;;9.03;;
13366;SDS011;6752;52.612;13.630;2024-03-06T02:25:05;9.90;;;8.03;;
13366;SDS011;6752;52.612;13.630;2024-03-06T02:30:07;9.98;;;8.98;;
13366;SDS011;6752;52.612;13.630;2024-03-06T02:35:10;11.40;;;8.87;;
13366;SDS011;6752;52.612;13.630;2024-03-06T02:40:12;10.40;;;8.60;;
13366;SDS011;6752;52.612;13.630;2024-03-06T02:45:14;10.93;;;9.17;;
13366;SDS011;6752;52.612;13.630;2024-03-06T02:50:17;11.87;;;9.77;;
13366;SDS011;6752;52.612;13.630;2024-03-06T02:55:21;12.80;;;9.40;;
13366;SDS011;6752;52.612;13.630;2024-03-06T03:00:22;12.37;;;11.10;;
13366;SDS011;6752;52.612;13.630;2024-03-06T03:05:24;12.43;;;10.77;;
13366;SDS011;6752;52.612;13.630;2024-03-06T03:10:27;14.00;;;11.03;;
13366;SDS011;6752;52.612;13.630;2024-03-06T03:15:29;13.13;;;10.63;;
13366;SDS011;6752;52.612;13.630;2024-03-06T03:20:31;13.47;;;10.23;;
13366;SDS011;6752;52.612;13.630;2024-03-06T03:25:34;13.80;;;10.90;;
13366;SDS011;6752;52.612;13.630;2024-03-06T03:30:36;14.23;;;11.27;;
13366;SDS011;6752;52.612;13.630;2024-03-06T03:35:38;14.73;;;11.07;;
13366;SDS011;6752;52.612;13.630;2024-03-06T03:40:41;13.60;;;10.63;;
13366;SDS011;6752;52.612;13.630;2024-03-06T03:45:43;14.97;;;11.30;;
13366;SDS011;6752;52.612;13.630;2024-03-06T03:50:45;14.20;;;12.70;;
13366;SDS011;6752;52.612;13.630;2024-03-06T03:55:48;13.43;;;12.02;;
13366;SDS011;6752;52.612;13.630;2024-03-06T04:00:50;11.97;;;10.67;;
13366;SDS011;6752;52.612;13.630;2024-03-06T04:05:55;15.03;;;11.57;;
13366;SDS011;6752;52.612;13.630;2024-03-06T04:10:58;14.63;;;11.20;;
13366;SDS011;6752;52.612;13.630;2024-03-06T04:16:00;14.93;;;11.23;;
13366;SDS011;6752;52.612;13.630;2024-03-06T04:21:05;13.40;;;11.10;;
13366;SDS011;6752;52.612;13.630;2024-03-06T04:26:08;13.97;;;11.20;;
13366;SDS011;6752;52.612;13.630;2024-03-06T04:31:10;14.37;;;10.90;;
13366;SDS011;6752;52.612;13.630;2024-03-06T04:36:12;17.50;;;12.30;;
13366;SDS011;6752;52.612;13.630;2024-03-06T04:41:15;15.87;;;11.73;;
13366;SDS011;6752;52.612;13.630;2024-03-06T04:46:17;15.07;;;11.93;;
13366;SDS011;6752;52.612;13.630;2024-03-06T04:51:20;15.40;;;12.43;;
13366;SDS011;6752;52.612;13.630;2024-03-06T04:56:22;17.70;;;13.50;;
13366;SDS011;6752;52.612;13.630;2024-03-06T05:01:26;17.20;;;13.23;;
13366;SDS011;6752;52.612;13.630;2024-03-06T05:06:28;17.70;;;13.17;;
13366;SDS011;6752;52.612;13.630;2024-03-06T05:11:31;18.63;;;14.10;;
13366;SDS011;6752;52.612;13.630;2024-03-06T05:16:33;17.87;;;13.50;;
13366;SDS011;6752;52.612;13.630;2024-03-06T05:21:36;18.03;;;13.33;;
13366;SDS011;6752;52.612;13.630;2024-03-06T05:26:38;18.77;;;14.37;;
13366;SDS011;6752;52.612;13.630;2024-03-06T05:31:40;20.67;;;14.30;;
13366;SDS011;6752;52.612;13.630;2024-03-06T05:36:43;21.20;;;15.63;;
13366;SDS011;6752;52.612;13.630;2024-03-06T05:41:45;19.57;;;14.70;;
13366;SDS011;6752;52.612;13.630;2024-03-06T05:46:48;19.17;;;17.27;;
13366;SDS011;6752;52.612;13.630;2024-03-06T05:51:50;20.57;;;16.00;;
13366;SDS011;6752;52.612;13.630;2024-03-06T05:56:52;18.63;;;15.17;;
13366;SDS011;6752;52.612;13.630;2024-03-06T06:01:55;22.27;;;16.50;;
13366;SDS011;6752;52.612;13.630;2024-03-06T06:06:57;21.17;;;15.90;;
13366;SDS011;6752;52.612;13.630;2024-03-06T06:12:00;21.77;;;15.80;;
13366;SDS011;6752;52.612;13.630;2024-03-06T06:17:02;18.27;;;14.73;;
13366;SDS011;6752;52.612;13.630;2024-03-06T06:22:04;18.92;;;16.92;;
13366;SDS011;6752;52.612;13.630;2024-03-06T06:27:07;21.33;;;16.90;;
13366;SDS011;6752;52.612;13.630;2024-03-06T06:32:09;20.27;;;16.13;;
13366;SDS011;6752;52.612;13.630;2024-03-06T06:37:11;23.00;;;16.97;;
13366;SDS011;6752;52.612;13.630;2024-03-06T06:42:14;19.70;;;14.60;;
13366;SDS011;6752;52.612;13.630;2024-03-06T06:47:17;20.65;;;18.50;;
13366;SDS011;6752;52.612;13.630;2024-03-06T06:52:19;21.17;;;16.80;;
13366;SDS011;6752;52.612;13.630;2024-03-06T06:57:21;22.53;;;16.43;;
13366;SDS011;6752;52.612;13.630;2024-03-06T07:02:23;18.47;;;16.07;;
13366;SDS011;6752;52.612;13.630;2024-03-06T07:07:26;19.13;;;14.87;;
13366;SDS011;6752;52.612;13.630;2024-03-06T07:12:28;21.80;;;16.63;;
13366;SDS011;6752;52.612;13.630;2024-03-06T07:17:30;20.77;;;15.67;;
13366;SDS011;6752;52.612;13.630;2024-03-06T07:22:33;19.80;;;15.97;;
13366;SDS011;6752;52.612;13.630;2024-03-06T07:27:35;21.53;;;17.13;;
13366;SDS011;6752;52.612;13.630;2024-03-06T07:32:37;20.90;;;16.63;;
13366;SDS011;6752;52.612;13.630;2024-03-06T07:37:40;18.40;;;15.30;;
13366;SDS011;6752;52.612;13.630;2024-03-06T07:42:42;18.97;;;16.13;;
13366;SDS011;6752;52.612;13.630;2024-03-06T07:47:45;18.80;;;15.40;;
13366;SDS011;6752;52.612;13.630;2024-03-06T07:52:47;18.13;;;14.73;;
13366;SDS011;6752;52.612;13.630;2024-03-06T07:57:49;16.67;;;14.00;;
13366;SDS011;6752;52.612;13.630;2024-03-06T08:02:52;17.43;;;14.63;;
13366;SDS011;6752;52.612;13.630;2024-03-06T08:07:54;18.00;;;15.10;;
13366;SDS011;6752;52.612;13.630;2024-03-06T08:12:56;15.57;;;13.80;;
13366;SDS011;6752;52.612;13.630;2024-03-06T08:17:59;16.57;;;14.10;;
13366;SDS011;6752;52.612;13.630;2024-03-06T08:23:01;14.53;;;12.80;;
13366;SDS011;6752;52.612;13.630;2024-03-06T08:28:04;13.57;;;11.37;;
13366;SDS011;6752;52.612;13.630;2024-03-06T08:33:06;13.20;;;11.43;;
13366;SDS011;6752;52.612;13.630;2024-03-06T08:38:08;14.02;;;12.63;;
13366;SDS011;6752;52.612;13.630;2024-03-06T08:43:14;13.43;;;11.80;;
13366;SDS011;6752;52.612;13.630;2024-03-06T08:48:15;12.90;;;11.53;;
13366;SDS011;6752;52.612;13.630;2024-03-06T08:53:18;13.90;;;12.27;;
13366;SDS011;6752;52.612;13.630;2024-03-06T08:58:20;14.17;;;11.60;;
13366;SDS011;6752;52.612;13.630;2024-03-06T09:03:22;13.90;;;12.30;;
13366;SDS011;6752;52.612;13.630;2024-03-06T09:08:25;13.23;;;11.73;;
13366;SDS011;6752;52.612;13.630;2024-03-06T09:13:27;14.33;;;12.83;;
13366;SDS011;6752;52.612;13.630;2024-03-06T09:18:29;14.80;;;13.13;;
13366;SDS011;6752;52.612;13.630;2024-03-06T09:23:32;14.70;;;13.17;;
13366;SDS011;6752;52.612;13.630;2024-03-06T09:28:34;13.20;;;11.83;;
13366;SDS011;6752;52.612;13.630;2024-03-06T09:33:38;13.90;;;12.10;;
13366;SDS011;6752;52.612;13.630;2024-03-06T09:38:39;12.63;;;11.33;;
13366;SDS011;6752;52.612;13.630;2024-03-06T09:43:43;11.13;;;9.97;;
13366;SDS011;6752;52.612;13.630;2024-03-06T09:48:45;12.37;;;10.20;;
13366;SDS011;6752;52.612;13.630;2024-03-06T09:53:46;11.57;;;9.53;;
13366;SDS011;6752;52.612;13.630;2024-03-06T09:58:49;13.20;;;11.70;;
13366;SDS011;6752;52.612;13.630;2024-03-06T10:03:51;12.63;;;11.33;;
13366;SDS011;6752;52.612;13.630;2024-03-06T10:08:53;12.70;;;11.03;;
13366;SDS011;6752;52.612;13.630;2024-03-06T10:13:56;14.30;;;12.80;;
13366;SDS011;6752;52.612;13.630;2024-03-06T10:19:14;13.00;;;11.67;;
13366;SDS011;6752;52.612;13.630;2024-03-06T10:24:02;14.97;;;13.47;;
13366;SDS011;6752;52.612;13.630;2024-03-06T10:29:04;16.40;;;14.70;;
13366;SDS011;6752;52.612;13.630;2024-03-06T10:34:07;20.47;;;18.37;;
13366;SDS011;6752;52.612;13.630;2024-03-06T10:39:10;16.50;;;14.90;;
13366;SDS011;6752;52.612;13.630;2024-03-06T10:44:12;22.43;;;20.23;;
13366;SDS011;6752;52.612;13.630;2024-03-06T10:49:17;20.30;;;18.30;;
13366;SDS011;6752;52.612;13.630;2024-03-06T10:54:19;17.93;;;16.13;;
13366;SDS011;6752;52.612;13.630;2024-03-06T10:59:23;24.17;;;22.07;;
13366;SDS011;6752;52.612;13.630;2024-03-06T11:04:25;17.47;;;15.80;;
13366;SDS011;6752;52.612;13.630;2024-03-06T11:09:34;17.50;;;15.90;;
13366;SDS011;6752;52.612;13.630;2024-03-06T11:14:39;16.93;;;15.33;;
13366;SDS011;6752;52.612;13.630;2024-03-06T11:25:03;15.53;;;14.13;;
13366;SDS011;6752;52.612;13.630;2024-03-06T11:30:11;14.97;;;13.57;;
13366;SDS011;6752;52.612;13.630;2024-03-06T11:35:13;14.57;;;13.23;;
13366;SDS011;6752;52.612;13.630;2024-03-06T11:40:16;15.00;;;13.67;;
13366;SDS011;6752;52.612;13.630;2024-03-06T11:45:19;15.23;;;13.83;;
13366;SDS011;6752;52.612;13.630;2024-03-06T11:50:20;16.23;;;14.63;;
13366;SDS011;6752;52.612;13.630;2024-03-06T11:55:23;14.03;;;12.60;;
13366;SDS011;6752;52.612;13.630;2024-03-06T12:00:29;13.67;;;12.37;;
13366;SDS011;6752;52.612;13.630;2024-03-06T12:05:30;16.17;;;14.57;;
13366;SDS011;6752;52.612;13.630;2024-03-06T12:10:36;16.87;;;15.20;;
13366;SDS011;6752;52.612;13.630;2024-03-06T12:15:35;17.17;;;15.47;;
13366;SDS011;6752;52.612;13.630;2024-03-06T12:20:44;16.43;;;14.73;;
13366;SDS011;6752;52.612;13.630;2024-03-06T12:25:46;15.10;;;13.70;;
13366;SDS011;6752;52.612;13.630;2024-03-06T12:30:48;17.08;;;15.48;;
13366;SDS011;6752;52.612;13.630;2024-03-06T12:36:00;17.90;;;16.10;;
13366;SDS011;6752;52.612;13.630;2024-03-06T12:41:08;19.30;;;16.00;;
13366;SDS011;6752;52.612;13.630;2024-03-06T12:46:10;25.73;;;20.80;;
13366;SDS011;6752;52.612;13.630;2024-03-06T12:51:13;22.97;;;19.03;;
13366;SDS011;6752;52.612;13.630;2024-03-06T12:56:15;26.30;;;23.50;;
13366;SDS011;6752;52.612;13.630;2024-03-06T13:01:17;22.33;;;19.87;;
13366;SDS011;6752;52.612;13.630;2024-03-06T13:06:20;27.93;;;22.40;;
13366;SDS011;6752;52.612;13.630;2024-03-06T13:16:37;23.57;;;19.07;;
13366;SDS011;6752;52.612;13.630;2024-03-06T13:21:39;23.80;;;18.87;;
13366;SDS011;6752;52.612;13.630;2024-03-06T13:26:41;20.87;;;17.13;;
13366;SDS011;6752;52.612;13.630;2024-03-06T13:31:44;26.47;;;20.00;;
13366;SDS011;6752;52.612;13.630;2024-03-06T13:36:46;26.93;;;17.60;;
13366;SDS011;6752;52.612;13.630;2024-03-06T13:41:48;29.17;;;18.13;;
13366;SDS011;6752;52.612;13.630;2024-03-06T13:46:51;31.50;;;19.60;;
13366;SDS011;6752;52.612;13.630;2024-03-06T13:51:56;33.50;;;21.63;;
13366;SDS011;6752;52.612;13.630;2024-03-06T13:57:01;38.80;;;30.37;;
13366;SDS011;6752;52.612;13.630;2024-03-06T14:02:04;28.63;;;24.73;;
13366;SDS011;6752;52.612;13.630;2024-03-06T14:07:07;27.77;;;24.73;;
13366;SDS011;6752;52.612;13.630;2024-03-06T14:12:09;27.87;;;21.93;;
13366;SDS011;6752;52.612;13.630;2024-03-06T14:17:12;27.40;;;22.00;;
13366;SDS011;6752;52.612;13.630;2024-03-06T14:22:15;25.83;;;21.50;;
13366;SDS011;6752;52.612;13.630;2024-03-06T14:27:17;26.87;;;20.83;;
13366;SDS011;6752;52.612;13.630;2024-03-06T14:32:19;28.23;;;21.53;;
13366;SDS011;6752;52.612;13.630;2024-03-06T14:37:22;28.37;;;21.77;;
13366;SDS011;6752;52.612;13.630;2024-03-06T14:42:24;32.40;;;24.53;;
13366;SDS011;6752;52.612;13.630;2024-03-06T14:47:26;31.30;;;24.70;;
13366;SDS011;6752;52.612;13.630;2024-03-06T14:52:29;32.10;;;24.07;;
13366;SDS011;6752;52.612;13.630;2024-03-06T14:57:31;25.27;;;22.60;;
13366;SDS011;6752;52.612;13.630;2024-03-06T15:02:33;22.77;;;19.93;;
13366;SDS011;6752;52.612;13.630;2024-03-06T15:07:36;20.63;;;17.63;;
13366;SDS011;6752;52.612;13.630;2024-03-06T15:12:38;18.95;;;17.02;;
13366;SDS011;6752;52.612;13.630;2024-03-06T15:17:41;16.50;;;14.20;;
13366;SDS011;6752;52.612;13.630;2024-03-06T15:22:43;14.93;;;13.23;;
13366;SDS011;6752;52.612;13.630;2024-03-06T15:27:46;14.43;;;12.93;;
13366;SDS011;6752;52.612;13.630;2024-03-06T15:32:48;14.57;;;13.13;;
13366;SDS011;6752;52.612;13.630;2024-03-06T15:37:50;15.60;;;14.00;;
13366;SDS011;6752;52.612;13.630;2024-03-06T15:42:53;15.93;;;14.43;;
13366;SDS011;6752;52.612;13.630;2024-03-06T15:47:55;15.97;;;14.33;;
13366;SDS011;6752;52.612;13.630;2024-03-06T15:52:58;15.17;;;13.57;;
13366;SDS011;6752;52.612;13.630;2024-03-06T15:58:00;17.07;;;14.77;;
13366;SDS011;6752;52.612;13.630;2024-03-06T16:03:04;17.20;;;15.40;;
13366;SDS011;6752;52.612;13.630;2024-03-06T16:08:07;16.10;;;14.50;;
13366;SDS011;6752;52.612;13.630;2024-03-06T16:13:11;16.37;;;14.87;;
13366;SDS011;6752;52.612;13.630;2024-03-06T16:18:13;15.47;;;13.93;;
13366;SDS011;6752;52.612;13.630;2024-03-06T16:23:16;14.20;;;12.80;;
13366;SDS011;6752;52.612;13.630;2024-03-06T16:28:18;14.57;;;13.07;;
13366;SDS011;6752;52.612;13.630;2024-03-06T16:33:22;14.77;;;13.03;;
13366;SDS011;6752;52.612;13.630;2024-03-06T16:38:25;15.90;;;14.50;;
13366;SDS011;6752;52.612;13.630;2024-03-06T16:43:27;14.00;;;12.67;;
13366;SDS011;6752;52.612;13.630;2024-03-06T16:48:29;15.47;;;13.77;;
13366;SDS011;6752;52.612;13.630;2024-03-06T16:53:32;16.13;;;14.20;;
13366;SDS011;6752;52.612;13.630;2024-03-06T16:58:34;14.83;;;13.33;;
13366;SDS011;6752;52.612;13.630;2024-03-06T17:03:36;13.70;;;12.30;;
13366;SDS011;6752;52.612;13.630;2024-03-06T17:08:39;14.40;;;12.90;;
13366;SDS011;6752;52.612;13.630;2024-03-06T17:13:41;14.00;;;12.60;;
13366;SDS011;6752;52.612;13.630;2024-03-06T17:18:44;15.13;;;13.57;;
13366;SDS011;6752;52.612;13.630;2024-03-06T17:23:46;14.37;;;12.87;;
13366;SDS011;6752;52.612;13.630;2024-03-06T17:28:49;13.63;;;12.23;;
13366;SDS011;6752;52.612;13.630;2024-03-06T17:33:51;13.90;;;12.50;;
13366;SDS011;6752;52.612;13.630;2024-03-06T17:38:54;13.73;;;12.33;;
13366;SDS011;6752;52.612;13.630;2024-03-06T17:43:56;14.70;;;13.20;;
13366;SDS011;6752;52.612;13.630;2024-03-06T17:48:58;13.80;;;12.40;;
13366;SDS011;6752;52.612;13.630;2024-03-06T17:54:02;14.20;;;12.70;;
13366;SDS011;6752;52.612;13.630;2024-03-06T17:59:04;12.63;;;11.43;;
13366;SDS011;6752;52.612;13.630;2024-03-06T18:04:07;12.50;;;11.23;;
13366;SDS011;6752;52.612;13.630;2024-03-06T18:09:09;12.30;;;11.07;;
13366;SDS011;6752;52.612;13.630;2024-03-06T18:14:11;14.40;;;12.90;;
13366;SDS011;6752;52.612;13.630;2024-03-06T18:19:14;15.13;;;13.53;;
13366;SDS011;6752;52.612;13.630;2024-03-06T18:24:16;13.80;;;11.07;;
13366;SDS011;6752;52.612;13.630;2024-03-06T18:29:18;13.10;;;11.77;;
13366;SDS011;6752;52.612;13.630;2024-03-06T18:34:21;13.10;;;11.80;;
13366;SDS011;6752;52.612;13.630;2024-03-06T18:39:24;15.43;;;13.83;;
13366;SDS011;6752;52.612;13.630;2024-03-06T18:44:26;15.87;;;14.27;;
13366;SDS011;6752;52.612;13.630;2024-03-06T18:49:28;17.73;;;15.83;;
13366;SDS011;6752;52.612;13.630;2024-03-06T18:54:31;23.17;;;19.37;;
13366;SDS011;6752;52.612;13.630;2024-03-06T18:59:33;28.47;;;22.30;;
13366;SDS011;6752;52.612;13.630;2024-03-06T19:04:35;28.23;;;21.83;;
13366;SDS011;6752;52.612;13.630;2024-03-06T19:09:38;36.47;;;26.43;;
13366;SDS011;6752;52.612;13.630;2024-03-06T19:14:43;36.77;;;26.73;;
13366;SDS011;6752;52.612;13.630;2024-03-06T19:19:45;37.40;;;27.57;;
13366;SDS011;6752;52.612;13.630;2024-03-06T19:24:51;40.17;;;28.60;;
13366;SDS011;6752;52.612;13.630;2024-03-06T19:29:53;42.37;;;29.67;;
13366;SDS011;6752;52.612;13.630;2024-03-06T19:34:56;44.43;;;30.33;;
13366;SDS011;6752;52.612;13.630;2024-03-06T19:40:02;46.43;;;30.67;;
13366;SDS011;6752;52.612;13.630;2024-03-06T19:45:01;44.60;;;28.30;;
13366;SDS011;6752;52.612;13.630;2024-03-06T19:50:04;43.07;;;30.20;;
13366;SDS011;6752;52.612;13.630;2024-03-06T19:55:10;44.87;;;29.50;;
13366;SDS011;6752;52.612;13.630;2024-03-06T20:00:14;50.30;;;32.23;;
13366;SDS011;6752;52.612;13.630;2024-03-06T20:05:15;55.80;;;36.10;;
13366;SDS011;6752;52.612;13.630;2024-03-06T20:10:18;51.27;;;34.33;;
13366;SDS011;6752;52.612;13.630;2024-03-06T20:15:20;52.22;;;39.17;;
13366;SDS011;6752;52.612;13.630;2024-03-06T20:20:24;54.33;;;35.23;;
13366;SDS011;6752;52.612;13.630;2024-03-06T20:25:28;54.53;;;34.43;;
13366;SDS011;6752;52.612;13.630;2024-03-06T20:30:31;63.17;;;38.47;;
13366;SDS011;6752;52.612;13.630;2024-03-06T20:35:33;61.23;;;38.37;;
13366;SDS011;6752;52.612;13.630;2024-03-06T20:40:36;55.63;;;35.57;;
13366;SDS011;6752;52.612;13.630;2024-03-06T20:45:46;56.50;;;36.20;;
13366;SDS011;6752;52.612;13.630;2024-03-06T20:50:49;65.70;;;39.93;;
13366;SDS011;6752;52.612;13.630;2024-03-06T20:55:51;73.63;;;39.70;;
13366;SDS011;6752;52.612;13.630;2024-03-06T21:00:53;71.63;;;38.80;;
13366;SDS011;6752;52.612;13.630;2024-03-06T21:05:57;69.47;;;38.23;;
13366;SDS011;6752;52.612;13.630;2024-03-06T21:11:04;68.10;;;44.30;;
13366;SDS011;6752;52.612;13.630;2024-03-06T21:16:08;62.53;;;37.50;;
13366;SDS011;6752;52.612;13.630;2024-03-06T21:21:11;62.33;;;37.17;;
13366;SDS011;6752;52.612;13.630;2024-03-06T21:26:13;58.50;;;35.77;;
13366;SDS011;6752;52.612;13.630;2024-03-06T21:31:15;59.93;;;36.00;;
13366;SDS011;6752;52.612;13.630;2024-03-06T21:36:18;57.93;;;34.40;;
13366;SDS011;6752;52.612;13.630;2024-03-06T21:41:25;70.40;;;39.43;;
13366;SDS011;6752;52.612;13.630;2024-03-06T21:46:30;77.10;;;41.37;;
13366;SDS011;6752;52.612;13.630;2024-03-06T21:51:32;80.57;;;42.07;;
13366;SDS011;6752;52.612;13.630;2024-03-06T21:56:34;71.28;;;44.70;;
13366;SDS011;6752;52.612;13.630;2024-03-06T22:01:37;83.93;;;43.20;;
13366;SDS011;6752;52.612;13.630;2024-03-06T22:06:40;79.87;;;41.73;;
13366;SDS011;6752;52.612;13.630;2024-03-06T22:11:45;81.97;;;40.63;;
13366;SDS011;6752;52.612;13.630;2024-03-06T22:16:49;83.53;;;41.07;;
13366;SDS011;6752;52.612;13.630;2024-03-06T22:21:53;85.43;;;40.70;;
13366;SDS011;6752;52.612;13.630;2024-03-06T22:26:57;87.77;;;41.23;;
13366;SDS011;6752;52.612;13.630;2024-03-06T22:32:00;99.80;;;41.80;;
13366;SDS011;6752;52.612;13.630;2024-03-06T22:37:05;89.30;;;42.27;;
13366;SDS011;6752;52.612;13.630;2024-03-06T22:42:07;85.23;;;42.37;;
13366;SDS011;6752;52.612;13.630;2024-03-06T22:47:10;90.28;;;48.28;;
13366;SDS011;6752;52.612;13.630;2024-03-06T22:52:12;81.10;;;47.45;;
13366;SDS011;6752;52.612;13.630;2024-03-06T22:57:14;90.50;;;42.50;;
13366;SDS011;6752;52.612;13.630;2024-03-06T23:02:18;78.37;;;40.17;;
13366;SDS011;6752;52.612;13.630;2024-03-06T23:07:20;88.00;;;42.10;;
13366;SDS011;6752;52.612;13.630;2024-03-06T23:12:23;99.47;;;45.00;;
13366;SDS011;6752;52.612;13.630;2024-03-06T23:17:25;92.15;;;48.97;;
13366;SDS011;6752;52.612;13.630;2024-03-06T23:22:29;78.83;;;40.47;;
13366;SDS011;6752;52.612;13.630;2024-03-06T23:27:31;83.97;;;41.80;;
13366;SDS011;6752;52.612;13.630;2024-03-06T23:32:34;85.17;;;38.60;;
13366;SDS011;6752;52.612;13.630;2024-03-06T23:37:37;82.60;;;38.03;;
13366;SDS011;6752;52.612;13.630;2024-03-06T23:42:40;87.80;;;38.80;;
13366;SDS011;6752;52.612;13.630;2024-03-06T23:47:43;84.27;;;40.47;;
13366;SDS011;6752;52.612;13.630;2024-03-06T23:52:44;89.10;;;39.23;;
13366;SDS011;6752;52.612;13.630;2024-03-06T23:57:48;83.80;;;36.60;;
